CMA CGM Thalassa — 5BNE2 — position and weather

sailwx.info

Track history (hours):
 
Tides and Currents Weather Stations Pressure Air Temp Water Temp Dewpoint Dewpoint Depression Visibility Wind Speed Wind Dir Waves Ship Positions

CMA CGM Thalassa

Last reported at 2014-Dec-15 21:12 UTC. Time now 2014-Dec-19 23:30 UTC.
Position N 29°35' E 122°26'.

Length 347 m; draft 7.4 m.

Type: Cargo ship. MMSI: 212151000.

Date/timePositionNaut miles runAvg speedWind from/ knotsBaromVisibWave heightAir tempDewpointWater temp
2014-Dec-15 21:12N 29°35' E 122°26'1 1.9
2014-Dec-15 20:33N 29°35' E 122°25'2 0.5
2014-Dec-15 16:23N 29°36' E 122°23'0 0.0
2014-Dec-15 06:31N 29°37' E 122°23'0 0.1
2014-Dec-15 03:17N 29°37' E 122°23'0 0.1
2014-Dec-14 22:27N 29°37' E 122°23'0 0.1
2014-Dec-14 19:26N 29°37' E 122°23'0 0.0
2014-Dec-14 17:13N 29°37' E 122°23'0 0.1
2014-Dec-14 16:07N 29°37' E 122°23'0 0.0
2014-Dec-14 12:23N 29°37' E 122°23'0 0.0
2014-Dec-14 08:21N 29°37' E 122°23'0 0.0
2014-Dec-14 07:27N 29°37' E 122°23'0 0.0
2014-Dec-13 22:23N 29°36' E 122°23'0 0.1
2014-Dec-13 21:10N 29°37' E 122°23'0 0.3
2014-Dec-13 20:22N 29°37' E 122°23'0 0.1
2014-Dec-13 18:15N 29°37' E 122°23'0 0.0
2014-Dec-13 17:15N 29°37' E 122°23'0 0.1
2014-Dec-13 14:07N 29°36' E 122°23'0 0.0
2014-Dec-13 08:33N 29°37' E 122°23'6 5.8
2014-Dec-13 07:33N 29°42' E 122°23'1211.8
2014-Dec-13 06:33N 29°50' E 122°13'6 5.9
2014-Dec-13 05:32N 29°48' E 122°06'0 0.0
2014-Dec-13 04:13N 29°48' E 122°06'0 0.2
2014-Dec-13 03:33N 29°48' E 122°06'1 1.4
2014-Dec-13 02:33N 29°47' E 122°05'0 0.1
2014-Dec-13 01:33N 29°47' E 122°05'0 0.1
2014-Dec-13 00:33N 29°47' E 122°05'0 0.0
2014-Dec-12 23:26N 29°47' E 122°05'0 0.0
2014-Dec-12 22:32N 29°47' E 122°05'0 0.0
2014-Dec-12 20:31N 29°47' E 122°05'0 0.0
2014-Dec-12 19:12N 29°47' E 122°05'0 0.0
2014-Dec-12 18:30N 29°47' E 122°05'0 0.0
2014-Dec-12 17:24N 29°47' E 122°05'0 0.0
2014-Dec-12 16:29N 29°47' E 122°05'0 0.0
2014-Dec-12 15:23N 29°47' E 122°05'0 0.0
2014-Dec-12 14:28N 29°47' E 122°05'0 0.0
2014-Dec-12 12:34N 29°47' E 122°05'0 0.0
2014-Dec-12 11:15N 29°47' E 122°05'0 0.0
2014-Dec-12 09:32N 29°47' E 122°05'0 0.0
2014-Dec-12 08:08N 29°47' E 122°05'0 0.0
2014-Dec-12 04:18N 29°47' E 122°05'0 0.0
2014-Dec-12 03:28N 29°47' E 122°05'0 0.0
2014-Dec-12 02:15N 29°47' E 122°05'0 0.0
2014-Dec-12 00:08N 29°47' E 122°05'0 0.0
2014-Dec-11 21:31N 29°47' E 122°05'0 0.0
2014-Dec-11 17:11N 29°47' E 122°05'0 0.0
2014-Dec-11 15:22N 29°47' E 122°05'0 0.0
2014-Dec-11 12:09N 29°47' E 122°05'0 0.0
2014-Dec-11 11:27N 29°47' E 122°05'0 0.0
2014-Dec-11 10:32N 29°47' E 122°05'0 0.0
2014-Dec-11 09:14N 29°47' E 122°05'0 0.0
2014-Dec-11 08:25N 29°47' E 122°05'0 0.0
2014-Dec-11 07:31N 29°47' E 122°05'0 0.0
2014-Dec-11 06:30N 29°47' E 122°05'0 0.0
2014-Dec-11 05:30N 29°47' E 122°05'0 0.0
2014-Dec-11 04:30N 29°47' E 122°05'0 0.0
2014-Dec-11 03:11N 29°47' E 122°05'0 0.0
2014-Dec-11 02:32N 29°47' E 122°05'0 0.0
2014-Dec-11 01:31N 29°47' E 122°05'0 0.0
2014-Dec-11 00:31N 29°47' E 122°05'0 0.0
2014-Dec-10 23:30N 29°47' E 122°05'0 0.0
2014-Dec-10 22:30N 29°47' E 122°05'0 0.0
2014-Dec-10 21:30N 29°47' E 122°05'0 0.0
2014-Dec-10 20:29N 29°47' E 122°05'0 0.0
2014-Dec-10 19:29N 29°47' E 122°05'0 0.0
2014-Dec-10 18:28N 29°47' E 122°05'0 0.0
2014-Dec-10 17:16N 29°47' E 122°05'0 0.0
2014-Dec-10 16:33N 29°47' E 122°05'0 0.0
2014-Dec-10 15:33N 29°47' E 122°05'0 0.0
2014-Dec-10 14:33N 29°47' E 122°05'0 0.0
2014-Dec-10 13:20N 29°47' E 122°05'0 0.0
2014-Dec-10 12:26N 29°47' E 122°05'0 0.0
2014-Dec-10 11:31N 29°47' E 122°05'0 0.0
2014-Dec-10 10:25N 29°47' E 122°05'0 0.0
2014-Dec-10 09:24N 29°47' E 122°05'0 0.0
2014-Dec-10 08:18N 29°47' E 122°05'0 0.0
2014-Dec-10 07:23N 29°47' E 122°05'0 0.0
2014-Dec-10 06:23N 29°47' E 122°05'0 0.0
2014-Dec-10 05:29N 29°47' E 122°05'0 0.0
2014-Dec-10 01:33N 29°47' E 122°05'0 0.0
2014-Dec-10 00:20N 29°47' E 122°05'0 0.0
2014-Dec-09 23:32N 29°47' E 122°05'0 0.0
2014-Dec-09 22:19N 29°47' E 122°05'0 0.0
2014-Dec-09 21:13N 29°47' E 122°05'0 0.0
2014-Dec-09 19:18N 29°47' E 122°05'0 0.0
2014-Dec-09 18:30N 29°47' E 122°05'0 0.0
2014-Dec-09 17:05N 29°47' E 122°05'0 0.0
2014-Dec-09 16:17N 29°47' E 122°05'0 0.0
2014-Dec-09 13:28N 29°47' E 122°05'0 0.0
2014-Dec-09 12:33N 29°47' E 122°05'0 0.0
2014-Dec-09 11:33N 29°47' E 122°05'0 0.0
2014-Dec-09 10:32N 29°47' E 122°05'0 0.0
2014-Dec-09 09:32N 29°47' E 122°05'0 0.0
2014-Dec-09 08:32N 29°47' E 122°05'0 0.0
2014-Dec-09 07:22N 29°47' E 122°05'0 0.0
2014-Dec-09 06:32N 29°47' E 122°05'0 0.0
2014-Dec-09 05:29N 29°47' E 122°05'0 0.0
2014-Dec-09 04:30N 29°47' E 122°05'0 0.0
2014-Dec-09 03:33N 29°47' E 122°05'0 0.0
2014-Dec-09 02:32N 29°47' E 122°05'0 0.0
2014-Dec-09 01:31N 29°47' E 122°05'0 0.0
2014-Dec-09 00:28N 29°47' E 122°05'0 0.0
2014-Dec-08 23:33N 29°47' E 122°05'0 0.0
2014-Dec-08 22:28N 29°47' E 122°05'0 0.0
2014-Dec-08 21:32N 29°47' E 122°05'0 0.0
2014-Dec-08 20:32N 29°47' E 122°05'0 0.0
2014-Dec-08 19:31N 29°47' E 122°05'0 0.0
2014-Dec-08 18:32N 29°47' E 122°05'0 0.0
2014-Dec-08 17:33N 29°47' E 122°05'0 0.0
2014-Dec-08 16:30N 29°47' E 122°05'0 0.0
2014-Dec-08 15:33N 29°47' E 122°05'0 0.0
2014-Dec-08 14:30N 29°47' E 122°05'0 0.0
2014-Dec-08 13:33N 29°47' E 122°05'0 0.0
2014-Dec-08 12:33N 29°47' E 122°05'0 0.0
2014-Dec-08 11:33N 29°47' E 122°05'0 0.0
2014-Dec-08 10:27N 29°47' E 122°05'0 0.0
2014-Dec-08 09:28N 29°47' E 122°05'0 0.0
2014-Dec-08 08:33N 29°47' E 122°05'0 0.0
2014-Dec-08 07:33N 29°47' E 122°05'0 0.0
2014-Dec-08 06:27N 29°47' E 122°05'0 0.0
2014-Dec-08 05:33N 29°47' E 122°05'0 0.0
2014-Dec-08 04:31N 29°47' E 122°05'0 0.0
2014-Dec-08 03:32N 29°47' E 122°05'0 0.0
2014-Dec-08 02:31N 29°47' E 122°05'0 0.0
2014-Dec-08 01:20N 29°47' E 122°05'0 0.0
2014-Dec-08 00:29N 29°47' E 122°05'0 0.0
2014-Dec-07 18:05N 29°47' E 122°05'0 0.0
2014-Dec-07 13:25N 29°47' E 122°05'0 0.0
2014-Dec-07 06:03N 29°47' E 122°05'0 0.4
2014-Dec-07 05:33N 29°47' E 122°05'1 0.5
2014-Dec-07 04:29N 29°47' E 122°05'0 0.0
2014-Dec-06 23:33N 29°47' E 122°05'0 0.0
2014-Dec-06 19:32N 29°47' E 122°05'0 0.0
2014-Dec-06 16:18N 29°47' E 122°05'0 0.0
2014-Dec-06 15:24N 29°47' E 122°05'0 0.0
2014-Dec-06 09:27N 29°47' E 122°05'0 0.0
2014-Dec-06 07:32N 29°47' E 122°05'1 0.7
2014-Dec-06 06:14N 29°48' E 122°06'0 0.0
2014-Dec-06 02:18N 29°48' E 122°06'0 0.0
2014-Dec-06 00:11N 29°48' E 122°06'0 0.3
2014-Dec-05 23:33N 29°48' E 122°06'  
Track history (hours):
 
Tides and Currents Weather Stations Pressure Air Temp Water Temp Dewpoint Dewpoint Depression Visibility Wind Speed Wind Dir Waves Ship Positions

CMA CGM Thalassa

Last reported at 2014-Dec-15 21:12 UTC. Time now 2014-Dec-19 23:30 UTC.
Position N 29°35' E 122°26'.

Length 347 m; draft 7.4 m.

Type: Cargo ship. MMSI: 212151000.

Date/timePositionNaut miles runAvg speedWind from/ knotsBaromVisibWave heightAir tempDewpointWater temp
2014-Dec-15 21:12N 29°35' E 122°26'1 1.9
2014-Dec-15 20:33N 29°35' E 122°25'2 0.5
2014-Dec-15 16:23N 29°36' E 122°23'0 0.0
2014-Dec-15 06:31N 29°37' E 122°23'0 0.1
2014-Dec-15 03:17N 29°37' E 122°23'0 0.1
2014-Dec-14 22:27N 29°37' E 122°23'0 0.1
2014-Dec-14 19:26N 29°37' E 122°23'0 0.0
2014-Dec-14 17:13N 29°37' E 122°23'0 0.1
2014-Dec-14 16:07N 29°37' E 122°23'0 0.0
2014-Dec-14 12:23N 29°37' E 122°23'0 0.0
2014-Dec-14 08:21N 29°37' E 122°23'0 0.0
2014-Dec-14 07:27N 29°37' E 122°23'0 0.0
2014-Dec-13 22:23N 29°36' E 122°23'0 0.1
2014-Dec-13 21:10N 29°37' E 122°23'0 0.3
2014-Dec-13 20:22N 29°37' E 122°23'0 0.1
2014-Dec-13 18:15N 29°37' E 122°23'0 0.0
2014-Dec-13 17:15N 29°37' E 122°23'0 0.1
2014-Dec-13 14:07N 29°36' E 122°23'0 0.0
2014-Dec-13 08:33N 29°37' E 122°23'6 5.8
2014-Dec-13 07:33N 29°42' E 122°23'1211.8
2014-Dec-13 06:33N 29°50' E 122°13'6 5.9
2014-Dec-13 05:32N 29°48' E 122°06'0 0.0
2014-Dec-13 04:13N 29°48' E 122°06'0 0.2
2014-Dec-13 03:33N 29°48' E 122°06'1 1.4
2014-Dec-13 02:33N 29°47' E 122°05'0 0.1
2014-Dec-13 01:33N 29°47' E 122°05'0 0.1
2014-Dec-13 00:33N 29°47' E 122°05'0 0.0
2014-Dec-12 23:26N 29°47' E 122°05'0 0.0
2014-Dec-12 22:32N 29°47' E 122°05'0 0.0
2014-Dec-12 20:31N 29°47' E 122°05'0 0.0
2014-Dec-12 19:12N 29°47' E 122°05'0 0.0
2014-Dec-12 18:30N 29°47' E 122°05'0 0.0
2014-Dec-12 17:24N 29°47' E 122°05'0 0.0
2014-Dec-12 16:29N 29°47' E 122°05'0 0.0
2014-Dec-12 15:23N 29°47' E 122°05'0 0.0
2014-Dec-12 14:28N 29°47' E 122°05'0 0.0
2014-Dec-12 12:34N 29°47' E 122°05'0 0.0
2014-Dec-12 11:15N 29°47' E 122°05'0 0.0
2014-Dec-12 09:32N 29°47' E 122°05'0 0.0
2014-Dec-12 08:08N 29°47' E 122°05'0 0.0
2014-Dec-12 04:18N 29°47' E 122°05'0 0.0
2014-Dec-12 03:28N 29°47' E 122°05'0 0.0
2014-Dec-12 02:15N 29°47' E 122°05'0 0.0
2014-Dec-12 00:08N 29°47' E 122°05'0 0.0
2014-Dec-11 21:31N 29°47' E 122°05'0 0.0
2014-Dec-11 17:11N 29°47' E 122°05'0 0.0
2014-Dec-11 15:22N 29°47' E 122°05'0 0.0
2014-Dec-11 12:09N 29°47' E 122°05'0 0.0
2014-Dec-11 11:27N 29°47' E 122°05'0 0.0
2014-Dec-11 10:32N 29°47' E 122°05'0 0.0
2014-Dec-11 09:14N 29°47' E 122°05'0 0.0
2014-Dec-11 08:25N 29°47' E 122°05'0 0.0
2014-Dec-11 07:31N 29°47' E 122°05'0 0.0
2014-Dec-11 06:30N 29°47' E 122°05'0 0.0
2014-Dec-11 05:30N 29°47' E 122°05'0 0.0
2014-Dec-11 04:30N 29°47' E 122°05'0 0.0
2014-Dec-11 03:11N 29°47' E 122°05'0 0.0
2014-Dec-11 02:32N 29°47' E 122°05'0 0.0
2014-Dec-11 01:31N 29°47' E 122°05'0 0.0
2014-Dec-11 00:31N 29°47' E 122°05'0 0.0
2014-Dec-10 23:30N 29°47' E 122°05'0 0.0
2014-Dec-10 22:30N 29°47' E 122°05'0 0.0
2014-Dec-10 21:30N 29°47' E 122°05'0 0.0
2014-Dec-10 20:29N 29°47' E 122°05'0 0.0
2014-Dec-10 19:29N 29°47' E 122°05'0 0.0
2014-Dec-10 18:28N 29°47' E 122°05'0 0.0
2014-Dec-10 17:16N 29°47' E 122°05'0 0.0
2014-Dec-10 16:33N 29°47' E 122°05'0 0.0
2014-Dec-10 15:33N 29°47' E 122°05'0 0.0
2014-Dec-10 14:33N 29°47' E 122°05'0 0.0
2014-Dec-10 13:20N 29°47' E 122°05'0 0.0
2014-Dec-10 12:26N 29°47' E 122°05'0 0.0
2014-Dec-10 11:31N 29°47' E 122°05'0 0.0
2014-Dec-10 10:25N 29°47' E 122°05'0 0.0
2014-Dec-10 09:24N 29°47' E 122°05'0 0.0
2014-Dec-10 08:18N 29°47' E 122°05'0 0.0
2014-Dec-10 07:23N 29°47' E 122°05'0 0.0
2014-Dec-10 06:23N 29°47' E 122°05'0 0.0
2014-Dec-10 05:29N 29°47' E 122°05'0 0.0
2014-Dec-10 01:33N 29°47' E 122°05'0 0.0
2014-Dec-10 00:20N 29°47' E 122°05'0 0.0
2014-Dec-09 23:32N 29°47' E 122°05'0 0.0
2014-Dec-09 22:19N 29°47' E 122°05'0 0.0
2014-Dec-09 21:13N 29°47' E 122°05'0 0.0
2014-Dec-09 19:18N 29°47' E 122°05'0 0.0
2014-Dec-09 18:30N 29°47' E 122°05'0 0.0
2014-Dec-09 17:05N 29°47' E 122°05'0 0.0
2014-Dec-09 16:17N 29°47' E 122°05'0 0.0
2014-Dec-09 13:28N 29°47' E 122°05'0 0.0
2014-Dec-09 12:33N 29°47' E 122°05'0 0.0
2014-Dec-09 11:33N 29°47' E 122°05'0 0.0
2014-Dec-09 10:32N 29°47' E 122°05'0 0.0
2014-Dec-09 09:32N 29°47' E 122°05'0 0.0
2014-Dec-09 08:32N 29°47' E 122°05'0 0.0
2014-Dec-09 07:22N 29°47' E 122°05'0 0.0
2014-Dec-09 06:32N 29°47' E 122°05'0 0.0
2014-Dec-09 05:29N 29°47' E 122°05'0 0.0
2014-Dec-09 04:30N 29°47' E 122°05'0 0.0
2014-Dec-09 03:33N 29°47' E 122°05'0 0.0
2014-Dec-09 02:32N 29°47' E 122°05'0 0.0
2014-Dec-09 01:31N 29°47' E 122°05'0 0.0
2014-Dec-09 00:28N 29°47' E 122°05'0 0.0
2014-Dec-08 23:33N 29°47' E 122°05'0 0.0
2014-Dec-08 22:28N 29°47' E 122°05'0 0.0
2014-Dec-08 21:32N 29°47' E 122°05'0 0.0
2014-Dec-08 20:32N 29°47' E 122°05'0 0.0
2014-Dec-08 19:31N 29°47' E 122°05'0 0.0
2014-Dec-08 18:32N 29°47' E 122°05'0 0.0
2014-Dec-08 17:33N 29°47' E 122°05'0 0.0
2014-Dec-08 16:30N 29°47' E 122°05'0 0.0
2014-Dec-08 15:33N 29°47' E 122°05'0 0.0
2014-Dec-08 14:30N 29°47' E 122°05'0 0.0
2014-Dec-08 13:33N 29°47' E 122°05'0 0.0
2014-Dec-08 12:33N 29°47' E 122°05'0 0.0
2014-Dec-08 11:33N 29°47' E 122°05'0 0.0
2014-Dec-08 10:27N 29°47' E 122°05'0 0.0
2014-Dec-08 09:28N 29°47' E 122°05'0 0.0
2014-Dec-08 08:33N 29°47' E 122°05'0 0.0
2014-Dec-08 07:33N 29°47' E 122°05'0 0.0
2014-Dec-08 06:27N 29°47' E 122°05'0 0.0
2014-Dec-08 05:33N 29°47' E 122°05'0 0.0
2014-Dec-08 04:31N 29°47' E 122°05'0 0.0
2014-Dec-08 03:32N 29°47' E 122°05'0 0.0
2014-Dec-08 02:31N 29°47' E 122°05'0 0.0
2014-Dec-08 01:20N 29°47' E 122°05'0 0.0
2014-Dec-08 00:29N 29°47' E 122°05'0 0.0
2014-Dec-07 18:05N 29°47' E 122°05'0 0.0
2014-Dec-07 13:25N 29°47' E 122°05'0 0.0
2014-Dec-07 06:03N 29°47' E 122°05'0 0.4
2014-Dec-07 05:33N 29°47' E 122°05'1 0.5
2014-Dec-07 04:29N 29°47' E 122°05'0 0.0
2014-Dec-06 23:33N 29°47' E 122°05'0 0.0
2014-Dec-06 19:32N 29°47' E 122°05'0 0.0
2014-Dec-06 16:18N 29°47' E 122°05'0 0.0
2014-Dec-06 15:24N 29°47' E 122°05'0 0.0
2014-Dec-06 09:27N 29°47' E 122°05'0 0.0
2014-Dec-06 07:32N 29°47' E 122°05'1 0.7
2014-Dec-06 06:14N 29°48' E 122°06'0 0.0
2014-Dec-06 02:18N 29°48' E 122°06'0 0.0
2014-Dec-06 00:11N 29°48' E 122°06'0 0.3
2014-Dec-05 23:33N 29°48' E 122°06'  

Dump ship's entire track history